Time;durP1;ratioP1;P1;durP2;ratioP2;P2;SDS_P1;SDS_P2;PMS_P1;PMS_P2;Temp;Humidity;BMP_temperature;BMP_pressure;BME280_temperature;BME280_humidity;BME280_pressure;Samples;Min_cycle;Max_cycle;Signal;HPM_P1;HPM_P2
2023/04/14 00:01:41;;;;;;;5.43;1.63;;;11.30;90.10;;;;;;7382020;19;20066;-72
2023/04/14 00:04:10;;;;;;;2.78;1.40;;;11.30;90.50;;;;;;7382003;19;20066;-72
2023/04/14 00:06:39;;;;;;;4.82;1.80;;;11.30;90.00;;;;;;7380003;19;20014;-71
2023/04/14 00:09:10;;;;;;;4.90;1.88;;;11.30;90.30;;;;;;7402372;19;20230;-71
2023/04/14 00:11:39;;;;;;;;;;;11.20;90.50;;;;;;7380169;19;20038;-71
2023/04/14 00:14:07;;;;;;;3.13;1.80;;;11.30;90.30;;;;;;7380751;19;19967;-71
2023/04/14 00:16:38;;;;;;;2.88;1.40;;;11.30;90.20;;;;;;7380234;19;20472;-72
2023/04/14 00:19:06;;;;;;;6.53;1.40;;;11.30;90.00;;;;;;7380439;19;20017;-71
2023/04/14 00:21:37;;;;;;;2.85;1.40;;;11.30;90.20;;;;;;7402298;19;20066;-72
2023/04/14 00:24:06;;;;;;;3.33;1.48;;;11.40;90.10;;;;;;7380380;19;20002;-71
2023/04/14 00:26:37;;;;;;;7.78;1.67;;;11.30;89.60;;;;;;7381102;19;20340;-70
2023/04/14 00:29:06;;;;;;;2.92;1.17;;;11.40;89.30;;;;;;7381399;19;20078;-70
2023/04/14 00:31:35;;;;;;;5.22;1.50;;;11.40;89.30;;;;;;7380866;19;20015;-70
2023/04/14 00:34:03;;;;;;;3.35;1.50;;;11.40;89.60;;;;;;7382392;19;20003;-70
2023/04/14 00:36:32;;;;;;;4.47;1.88;;;11.30;89.90;;;;;;7399840;19;20011;-70
2023/04/14 00:39:03;;;;;;;5.22;1.85;;;11.40;89.70;;;;;;7380262;19;20002;-70
2023/04/14 00:41:37;;;;;;;4.30;1.90;;;11.20;89.60;;;;;;7380006;19;20007;-70
2023/04/14 00:44:06;;;;;;;5.80;1.50;;;11.20;89.30;;;;;;7380487;19;20583;-70
2023/04/14 00:46:35;;;;;;;6.03;2.05;;;11.20;89.40;;;;;;7380166;19;20054;-70
2023/04/14 00:49:03;;;;;;;4.65;1.45;;;11.10;89.70;;;;;;7381761;19;20010;-70
2023/04/14 00:51:33;;;;;;;3.55;1.75;;;11.10;89.70;;;;;;7400332;19;20062;-70
2023/04/14 00:54:04;;;;;;;6.32;1.42;;;11.00;90.00;;;;;;7380316;19;20002;-70
2023/04/14 00:56:32;;;;;;;5.15;1.50;;;11.00;90.00;;;;;;7379610;19;20003;-71
2023/04/14 00:59:05;;;;;;;3.42;1.50;;;11.00;89.80;;;;;;7379877;19;20007;-70
2023/04/14 01:01:35;;;;;;;3.88;1.45;;;10.90;89.70;;;;;;7379992;19;20031;-70
2023/04/14 01:04:05;;;;;;;13.88;1.92;;;10.90;90.00;;;;;;7380301;19;20022;-70
2023/04/14 01:06:35;;;;;;;5.07;1.35;;;10.90;89.70;;;;;;7398987;19;20303;-71
2023/04/14 01:09:05;;;;;;;2.38;1.40;;;10.80;89.60;;;;;;7379459;19;20013;-71
2023/04/14 01:11:39;;;;;;;3.13;1.88;;;10.80;89.80;;;;;;7378100;19;20007;-71
2023/04/14 01:14:18;;;;;;;2.90;1.63;;;10.80;90.00;;;;;;7379383;19;20023;-71
2023/04/14 01:16:49;;;;;;;3.33;1.50;;;10.70;90.00;;;;;;7379127;19;20556;-70
2023/04/14 01:19:43;;;;;;;6.10;1.60;;;10.70;89.70;;;;;;7380567;19;20238;-70
2023/04/14 01:22:14;;;;;;;3.97;1.40;;;10.70;90.00;;;;;;7379537;19;20048;-70
2023/04/14 01:25:10;;;;;;;4.32;1.65;;;10.70;89.80;;;;;;7378304;19;20054;-70
2023/04/14 01:27:45;;;;;;;3.47;1.63;;;10.60;89.50;;;;;;7379046;19;20066;-70
2023/04/14 01:30:34;;;;;;;2.55;1.23;;;10.60;90.00;;;;;;7404893;19;20027;-70
2023/04/14 01:33:08;;;;;;;5.35;1.60;;;10.60;90.20;;;;;;7379534;19;20354;-71
2023/04/14 01:35:41;;;;;;;3.72;1.33;;;10.60;90.10;;;;;;7386606;19;20410;-70
2023/04/14 01:38:14;;;;;;;2.95;1.48;;;10.60;90.00;;;;;;7387092;19;20020;-70
2023/04/14 01:40:46;;;;;;;3.40;1.85;;;10.60;90.00;;;;;;7387217;19;20011;-70
2023/04/14 01:43:16;;;;;;;2.58;1.85;;;10.60;89.20;;;;;;7385337;19;20017;-70
2023/04/14 01:45:51;;;;;;;2.75;1.63;;;10.60;90.00;;;;;;7386340;19;20010;-70
2023/04/14 01:48:23;;;;;;;2.92;1.35;;;10.50;89.20;;;;;;7407664;19;20063;-70
2023/04/14 01:50:52;;;;;;;2.63;1.52;;;10.50;89.20;;;;;;7384301;19;20371;-70
2023/04/14 01:53:22;;;;;;;4.10;1.42;;;10.40;89.70;;;;;;7385773;19;20007;-70
2023/04/14 01:55:52;;;;;;;3.88;1.70;;;10.40;89.80;;;;;;7385566;19;20023;-69
2023/04/14 01:58:22;;;;;;;2.92;1.65;;;10.40;89.40;;;;;;7386132;19;20074;-71
2023/04/14 02:00:52;;;;;;;6.60;1.50;;;10.30;89.10;;;;;;7387161;19;20011;-70
2023/04/14 02:03:24;;;;;;;3.85;1.80;;;10.30;89.70;;;;;;7407755;19;20070;-70
2023/04/14 02:05:55;;;;;;;6.70;1.70;;;10.20;90.00;;;;;;7384117;19;20006;-70
2023/04/14 02:08:26;;;;;;;2.40;1.63;;;10.30;90.10;;;;;;7385320;19;20069;-70
2023/04/14 02:10:56;;;;;;;6.22;1.80;;;10.20;90.10;;;;;;7384389;19;20066;-71
2023/04/14 02:13:27;;;;;;;4.13;1.97;;;10.30;90.00;;;;;;7385070;19;20003;-70
2023/04/14 02:15:56;;;;;;;5.97;2.10;;;10.30;89.80;;;;;;7385400;19;20067;-70
2023/04/14 02:18:28;;;;;;;5.05;1.90;;;10.30;89.70;;;;;;7406261;19;20021;-71
2023/04/14 02:20:59;;;;;;;6.85;2.08;;;10.30;89.80;;;;;;7384720;19;20062;-70
2023/04/14 02:23:28;;;;;;;7.30;2.10;;;10.30;89.70;;;;;;7384495;19;20078;-71
2023/04/14 02:26:02;;;;;;;5.30;1.92;;;10.30;89.20;;;;;;7385056;19;20010;-70
2023/04/14 02:28:33;;;;;;;4.05;2.00;;;10.30;89.40;;;;;;7384288;19;20075;-70
2023/04/14 02:31:07;;;;;;;3.78;2.03;;;10.20;89.60;;;;;;7384350;19;20070;-70
2023/04/14 02:33:40;;;;;;;4.72;2.08;;;10.30;89.60;;;;;;7404142;19;20066;-70
2023/04/14 02:36:17;;;;;;;3.83;2.22;;;10.30;89.70;;;;;;7383816;19;20402;-70
2023/04/14 02:38:49;;;;;;;8.43;2.33;;;10.20;89.50;;;;;;7385703;19;20002;-71
2023/04/14 02:41:24;;;;;;;3.92;2.08;;;10.20;89.60;;;;;;7383977;19;20234;-69
2023/04/14 02:44:00;;;;;;;7.38;2.90;;;10.20;89.90;;;;;;7383963;19;20006;-70
2023/04/14 02:46:33;;;;;;;5.40;2.05;;;10.20;89.90;;;;;;7382519;19;20022;-71
2023/04/14 02:49:07;;;;;;;7.47;2.17;;;10.30;89.70;;;;;;7384419;19;20003;-71
2023/04/14 02:51:38;;;;;;;4.78;2.50;;;10.30;88.90;;;;;;7405687;19;20017;-70
2023/04/14 02:54:10;;;;;;;4.97;2.38;;;10.20;89.00;;;;;;7384766;19;20243;-70
2023/04/14 02:56:39;;;;;;;3.53;2.17;;;10.20;89.60;;;;;;7384939;19;20003;-70
2023/04/14 02:59:08;;;;;;;9.20;2.60;;;10.20;89.60;;;;;;7383992;19;20060;-71
2023/04/14 03:01:38;;;;;;;7.47;2.33;;;10.20;90.10;;;;;;7383335;19;20421;-71
2023/04/14 03:04:09;;;;;;;5.75;2.30;;;10.30;90.10;;;;;;7384073;19;20007;-70
2023/04/14 03:06:41;;;;;;;3.80;2.10;;;10.30;90.00;;;;;;7381662;19;20010;-70
2023/04/14 03:09:09;;;;;;;;;;;10.30;89.80;;;;;;7406384;19;20051;-69
2023/04/14 03:11:40;;;;;;;5.25;1.90;;;10.30;90.00;;;;;;7385318;19;19962;-69
2023/04/14 03:14:09;;;;;;;7.75;2.53;;;10.30;89.70;;;;;;7384543;19;20015;-70
2023/04/14 03:16:39;;;;;;;6.82;2.20;;;10.40;89.60;;;;;;7384637;19;20026;-69
2023/04/14 03:19:12;;;;;;;6.47;2.58;;;10.30;89.30;;;;;;7383412;19;20026;-69
2023/04/14 03:21:41;;;;;;;5.07;2.75;;;10.30;89.50;;;;;;7381945;19;20029;-71
2023/04/14 03:24:13;;;;;;;3.92;2.58;;;10.30;89.60;;;;;;7402527;19;20058;-69
2023/04/14 03:26:44;;;;;;;4.15;2.20;;;10.30;89.80;;;;;;7381873;19;20250;-70
2023/04/14 03:29:14;;;;;;;7.03;2.00;;;10.30;90.00;;;;;;7382022;19;20369;-69
2023/04/14 03:31:45;;;;;;;4.60;2.60;;;10.20;90.00;;;;;;7381710;19;20058;-69
2023/04/14 03:34:18;;;;;;;5.30;3.53;;;10.20;89.90;;;;;;7382432;19;20078;-69
2023/04/14 03:36:47;;;;;;;5.22;2.97;;;10.20;90.00;;;;;;7382200;19;20319;-69
2023/04/14 03:39:19;;;;;;;7.03;3.08;;;10.20;90.10;;;;;;7403375;19;20023;-70
2023/04/14 03:41:50;;;;;;;11.18;3.13;;;10.20;90.20;;;;;;7382903;19;20361;-70
2023/04/14 03:44:21;;;;;;;6.47;2.88;;;10.20;90.30;;;;;;7381650;19;20026;-70
2023/04/14 03:46:50;;;;;;;5.93;2.65;;;10.20;90.40;;;;;;7381139;19;20389;-70
2023/04/14 03:49:24;;;;;;;5.47;2.42;;;10.20;90.30;;;;;;7380650;19;20253;-70
2023/04/14 03:51:56;;;;;;;4.60;2.30;;;10.20;90.40;;;;;;7381410;19;20027;-70
2023/04/14 03:54:29;;;;;;;2.60;2.20;;;10.20;90.50;;;;;;7401926;19;20078;-70
2023/04/14 03:56:59;;;;;;;5.57;2.65;;;10.20;90.40;;;;;;7379396;19;20009;-70
2023/04/14 03:59:29;;;;;;;5.60;2.85;;;10.20;90.30;;;;;;7380934;19;20006;-70
2023/04/14 04:01:59;;;;;;;5.88;2.50;;;10.20;90.30;;;;;;7380804;19;20291;-70
2023/04/14 04:04:33;;;;;;;4.43;2.55;;;10.20;90.00;;;;;;7382449;19;20006;-70
2023/04/14 04:07:02;;;;;;;6.10;2.25;;;10.10;90.00;;;;;;7382731;19;20011;-70
2023/04/14 04:09:32;;;;;;;11.23;2.28;;;10.10;90.10;;;;;;7405373;19;20056;-70
2023/04/14 04:12:02;;;;;;;4.70;2.40;;;10.10;90.10;;;;;;7382081;19;20248;-70
2023/04/14 04:14:32;;;;;;;5.13;2.65;;;10.10;90.20;;;;;;7381813;19;20014;-70
2023/04/14 04:17:07;;;;;;;8.35;2.60;;;10.10;90.30;;;;;;7382452;19;20015;-71
2023/04/14 04:19:40;;;;;;;5.65;2.78;;;10.10;90.30;;;;;;7385155;19;20060;-69
2023/04/14 04:22:10;;;;;;;4.57;2.70;;;10.10;90.10;;;;;;7382274;19;20246;-70
2023/04/14 04:24:41;;;;;;;7.70;2.88;;;10.10;90.00;;;;;;7383625;19;20063;-70
2023/04/14 04:27:11;;;;;;;5.60;2.75;;;10.00;90.10;;;;;;7402741;19;20224;-70
2023/04/14 04:29:40;;;;;;;6.60;2.53;;;10.00;90.10;;;;;;7381011;19;20002;-70
2023/04/14 04:32:09;;;;;;;7.15;2.58;;;10.00;90.00;;;;;;7380468;19;20054;-71
2023/04/14 04:34:41;;;;;;;4.72;2.72;;;10.00;89.80;;;;;;7381947;19;20020;-70
2023/04/14 04:37:12;;;;;;;5.68;2.85;;;10.00;90.00;;;;;;7381078;19;20003;-70
2023/04/14 04:39:40;;;;;;;20.65;3.05;;;10.00;90.10;;;;;;7381214;19;20062;-72
2023/04/14 04:42:09;;;;;;;6.15;2.42;;;10.00;90.10;;;;;;7402136;19;20011;-71
2023/04/14 04:44:38;;;;;;;12.02;3.17;;;10.00;90.20;;;;;;7379496;19;20007;-71
2023/04/14 04:47:08;;;;;;;12.00;3.25;;;10.00;90.10;;;;;;7380657;19;20227;-71
2023/04/14 04:49:36;;;;;;;9.82;3.10;;;10.00;90.00;;;;;;7379267;19;20015;-71
2023/04/14 04:52:08;;;;;;;6.72;3.10;;;10.10;90.20;;;;;;7379782;19;20071;-71
2023/04/14 04:54:36;;;;;;;6.47;2.95;;;10.10;90.10;;;;;;7399514;19;20023;-71
2023/04/14 04:57:05;;;;;;;6.53;3.47;;;10.10;90.10;;;;;;7401593;19;20030;-71
2023/04/14 04:59:34;;;;;;;4.43;3.00;;;10.10;90.10;;;;;;7378720;19;20006;-71
2023/04/14 05:02:03;;;;;;;8.50;2.97;;;10.10;90.00;;;;;;7379910;19;20250;-71
2023/04/14 05:04:32;;;;;;;8.75;3.30;;;10.00;90.00;;;;;;7378742;19;20066;-71
2023/04/14 05:07:00;;;;;;;6.05;3.30;;;10.00;90.10;;;;;;7377891;19;20011;-70
2023/04/14 05:09:32;;;;;;;15.10;3.60;;;10.00;90.00;;;;;;7403274;19;20059;-70
2023/04/14 05:12:00;;;;;;;6.85;3.88;;;10.10;90.10;;;;;;7389304;19;20055;-70
2023/04/14 05:14:29;;;;;;;6.60;3.67;;;10.10;90.10;;;;;;7387419;19;20016;-70
2023/04/14 05:16:58;;;;;;;12.27;4.00;;;10.10;90.20;;;;;;7385807;19;20429;-70
2023/04/14 05:19:27;;;;;;;8.85;4.57;;;10.10;90.20;;;;;;7385242;19;20256;-71
2023/04/14 05:21:55;;;;;;;7.22;3.92;;;10.10;90.10;;;;;;7388514;19;20362;-69
2023/04/14 05:24:24;;;;;;;10.60;3.97;;;10.20;90.20;;;;;;7409391;19;20010;-70
2023/04/14 05:26:56;;;;;;;8.18;4.90;;;10.20;90.20;;;;;;7385790;19;20074;-70
2023/04/14 05:29:24;;;;;;;9.98;4.90;;;10.20;90.10;;;;;;7386314;19;20065;-70
2023/04/14 05:31:53;;;;;;;12.30;4.65;;;10.10;90.00;;;;;;7385969;19;20010;-70
2023/04/14 05:34:22;;;;;;;16.67;4.80;;;10.20;90.20;;;;;;7387104;19;20006;-70
2023/04/14 05:36:50;;;;;;;6.47;4.35;;;10.10;90.10;;;;;;7386465;19;20014;-70
2023/04/14 05:39:19;;;;;;;9.63;4.70;;;10.10;90.20;;;;;;7405979;19;20062;-69
2023/04/14 05:41:48;;;;;;;9.85;4.75;;;10.10;90.30;;;;;;7385530;19;20024;-70
2023/04/14 05:44:19;;;;;;;8.73;4.10;;;10.20;90.50;;;;;;7385537;19;20279;-69
2023/04/14 05:46:47;;;;;;;7.30;3.90;;;10.20;90.70;;;;;;7388217;19;20011;-69
2023/04/14 05:49:16;;;;;;;6.90;4.18;;;10.20;90.90;;;;;;7386286;19;20007;-71
2023/04/14 05:51:45;;;;;;;9.90;3.72;;;10.20;91.10;;;;;;7384818;19;20264;-70
2023/04/14 05:54:14;;;;;;;10.63;3.83;;;10.30;91.30;;;;;;7407273;19;20027;-70
2023/04/14 05:56:43;;;;;;;11.35;4.20;;;10.30;91.50;;;;;;7385169;19;20023;-71
2023/04/14 05:59:11;;;;;;;7.25;4.55;;;10.40;91.50;;;;;;7385131;19;20066;-71
2023/04/14 06:01:42;;;;;;;10.13;5.10;;;10.40;91.50;;;;;;7385942;19;20248;-71
2023/04/14 06:04:11;;;;;;;8.38;4.90;;;10.50;91.50;;;;;;7383974;19;20354;-71
2023/04/14 06:06:40;;;;;;;12.23;4.80;;;10.50;91.60;;;;;;7383358;19;20019;-71
2023/04/14 06:09:08;;;;;;;8.48;4.85;;;10.60;91.70;;;;;;7404869;19;20059;-69
2023/04/14 06:11:38;;;;;;;17.90;5.05;;;10.60;91.70;;;;;;7387748;19;20277;-69
2023/04/14 06:14:07;;;;;;;17.08;5.30;;;10.70;91.70;;;;;;7384148;19;20091;-69
2023/04/14 06:16:35;;;;;;;7.70;4.85;;;10.70;91.70;;;;;;7383591;19;20066;-70
2023/04/14 06:19:07;;;;;;;13.15;5.22;;;10.70;91.70;;;;;;7383167;19;20270;-70
2023/04/14 06:21:35;;;;;;;11.43;5.55;;;10.80;91.70;;;;;;7405740;19;20385;-70
2023/04/14 06:24:04;;;;;;;11.98;5.25;;;10.80;91.60;;;;;;7384520;19;20058;-70
2023/04/14 06:26:33;;;;;;;7.93;5.10;;;10.90;91.60;;;;;;7383662;19;20103;-70
2023/04/14 06:29:02;;;;;;;9.98;5.85;;;10.90;91.60;;;;;;7383551;19;20002;-70
2023/04/14 06:31:30;;;;;;;10.52;5.88;;;10.90;91.50;;;;;;7384829;19;20007;-70
2023/04/14 06:33:59;;;;;;;12.32;6.00;;;10.90;91.50;;;;;;7382348;19;20020;-70
2023/04/14 06:36:30;;;;;;;15.73;6.15;;;11.00;91.50;;;;;;7404852;19;20116;-69
2023/04/14 06:38:59;;;;;;;13.25;6.45;;;11.00;91.50;;;;;;7383760;19;20028;-70
2023/04/14 06:41:28;;;;;;;12.98;6.85;;;11.00;91.50;;;;;;7383813;19;20287;-70
2023/04/14 06:43:57;;;;;;;10.00;6.75;;;11.10;91.50;;;;;;7384381;19;20110;-70
2023/04/14 06:46:25;;;;;;;12.27;7.60;;;11.10;91.50;;;;;;7383089;19;20023;-70
2023/04/14 06:48:54;;;;;;;17.40;9.38;;;11.20;91.50;;;;;;7383378;19;20369;-70
2023/04/14 06:51:23;;;;;;;13.18;8.40;;;11.20;91.50;;;;;;7405001;19;20030;-69
2023/04/14 06:53:54;;;;;;;16.95;9.65;;;11.20;91.60;;;;;;7382298;19;20062;-72
2023/04/14 06:56:23;;;;;;;15.80;9.60;;;11.20;91.60;;;;;;7383775;19;20043;-72
2023/04/14 06:58:51;;;;;;;13.85;9.40;;;11.30;91.60;;;;;;7383569;19;20023;-72
2023/04/14 07:01:20;;;;;;;14.98;9.90;;;11.30;91.60;;;;;;7384181;19;20025;-72
2023/04/14 07:03:49;;;;;;;13.00;9.52;;;11.40;91.60;;;;;;7383881;19;20066;-72
2023/04/14 07:06:18;;;;;;;18.02;10.35;;;11.40;91.60;;;;;;7405093;19;20007;-73
2023/04/14 07:08:47;;;;;;;16.17;10.02;;;11.40;91.60;;;;;;7383198;19;20006;-72
2023/04/14 07:11:18;;;;;;;19.08;9.95;;;11.40;91.60;;;;;;7383321;19;20009;-72
2023/04/14 07:13:46;;;;;;;17.98;9.85;;;11.40;91.70;;;;;;7405027;19;20006;-72
2023/04/14 07:16:15;;;;;;;17.95;10.15;;;11.40;91.70;;;;;;7382866;19;20414;-72
2023/04/14 07:18:44;;;;;;;17.85;9.75;;;11.50;91.70;;;;;;7383261;19;20007;-73
2023/04/14 07:21:12;;;;;;;20.75;10.85;;;11.50;91.70;;;;;;7386757;19;20006;-72
2023/04/14 07:23:41;;;;;;;13.98;9.50;;;11.50;91.70;;;;;;7385399;19;20027;-72
2023/04/14 07:26:10;;;;;;;14.68;8.45;;;11.60;91.80;;;;;;7384879;19;20010;-72
2023/04/14 07:28:41;;;;;;;16.98;9.07;;;11.60;91.70;;;;;;7406734;19;20066;-74
2023/04/14 07:31:11;;;;;;;15.68;9.48;;;11.70;91.60;;;;;;7382670;19;20016;-74
2023/04/14 07:33:40;;;;;;;14.45;8.77;;;11.70;91.60;;;;;;7379189;19;20014;-76
2023/04/14 07:36:09;;;;;;;14.48;8.20;;;11.70;91.50;;;;;;7382689;19;20007;-74
2023/04/14 07:38:38;;;;;;;12.70;7.88;;;11.80;91.70;;;;;;7383074;19;20023;-78
2023/04/14 07:41:08;;;;;;;11.20;7.68;;;11.80;91.70;;;;;;7381578;19;20019;-77
2023/04/14 07:43:38;;;;;;;11.80;7.50;;;11.80;91.70;;;;;;7406298;19;20015;-76
2023/04/14 07:46:12;;;;;;;10.88;7.32;;;11.80;91.60;;;;;;7383038;19;20257;-75
2023/04/14 07:51:45;;;;;;;8.95;6.60;;;11.90;91.70;;;;;;7391293;19;20247;-81
2023/04/14 07:57:26;;;;;;;8.32;5.63;;;11.80;91.50;;;;;;7386984;19;20287;-83
2023/04/14 07:59:55;;;;;;;11.48;5.70;;;11.80;91.40;;;;;;7388254;19;20035;-81
2023/04/14 08:02:27;;;;;;;9.25;5.20;;;11.80;91.50;;;;;;7380160;19;20003;-77
2023/04/14 08:04:56;;;;;;;10.10;5.43;;;11.80;91.60;;;;;;7384065;19;20015;-77
2023/04/14 08:07:29;;;;;;;13.73;5.28;;;11.90;91.70;;;;;;7408789;19;20288;-79
2023/04/14 08:09:58;;;;;;;14.40;5.18;;;11.80;91.60;;;;;;7388881;19;20003;-78
2023/04/14 08:12:27;;;;;;;13.32;5.32;;;11.80;91.50;;;;;;7379549;19;20010;-77
2023/04/14 08:14:58;;;;;;;7.18;4.32;;;11.80;91.50;;;;;;7378312;19;20075;-78
2023/04/14 08:17:30;;;;;;;8.63;4.82;;;11.90;91.60;;;;;;7378289;19;20009;-76
2023/04/14 08:20:00;;;;;;;7.45;3.95;;;11.90;91.70;;;;;;7377321;19;20011;-76
2023/04/14 08:22:29;;;;;;;5.90;3.63;;;11.90;91.60;;;;;;7402259;19;20015;-73
2023/04/14 08:24:58;;;;;;;7.13;3.80;;;12.00;91.50;;;;;;7385342;19;20010;-74
2023/04/14 08:27:26;;;;;;;5.40;3.30;;;12.00;91.60;;;;;;7383561;19;20062;-69
2023/04/14 08:29:55;;;;;;;7.00;3.30;;;12.00;91.60;;;;;;7380580;19;20078;-74
2023/04/14 08:32:23;;;;;;;4.70;3.13;;;12.10;91.60;;;;;;7380195;19;20010;-73
2023/04/14 08:34:55;;;;;;;10.30;3.50;;;12.00;91.40;;;;;;7398194;19;20006;-73
2023/04/14 08:37:23;;;;;;;5.35;3.17;;;12.10;91.90;;;;;;7402349;19;20049;-74
2023/04/14 08:39:52;;;;;;;9.77;2.90;;;12.20;91.50;;;;;;7380015;19;20002;-73
2023/04/14 08:42:22;;;;;;;6.75;3.20;;;12.20;91.50;;;;;;7379596;19;20070;-74
2023/04/14 08:44:51;;;;;;;4.82;2.90;;;12.20;91.40;;;;;;7386316;19;20031;-72
2023/04/14 08:47:21;;;;;;;6.50;2.67;;;12.30;91.60;;;;;;7388292;19;20011;-73
2023/04/14 08:49:59;;;;;;;10.73;2.83;;;12.30;91.60;;;;;;7409413;19;20074;-73
2023/04/14 08:52:30;;;;;;;6.18;2.58;;;12.30;91.40;;;;;;7389018;19;20006;-73
2023/04/14 08:54:59;;;;;;;3.47;2.38;;;12.40;91.20;;;;;;7386495;19;20062;-73
2023/04/14 08:57:29;;;;;;;9.77;2.33;;;12.40;91.10;;;;;;7387117;19;20009;-74
2023/04/14 08:59:58;;;;;;;8.07;2.47;;;12.50;91.20;;;;;;7387056;19;20003;-73
2023/04/14 09:02:28;;;;;;;10.07;2.83;;;12.40;91.00;;;;;;7387186;19;20002;-72
2023/04/14 09:05:04;;;;;;;9.82;3.10;;;12.50;91.10;;;;;;7387147;19;20358;-73
2023/04/14 09:07:33;;;;;;;12.80;3.08;;;12.50;91.10;;;;;;7408612;19;20019;-73
2023/04/14 09:10:02;;;;;;;6.78;2.97;;;12.50;91.00;;;;;;7388746;19;20353;-74
2023/04/14 09:12:32;;;;;;;5.93;2.55;;;12.50;91.10;;;;;;7387205;19;20002;-77
2023/04/14 09:15:05;;;;;;;9.18;3.30;;;12.50;90.80;;;;;;7387042;19;20006;-79
2023/04/14 09:17:37;;;;;;;7.60;3.10;;;12.50;91.00;;;;;;7387733;19;20002;-77
2023/04/14 09:20:10;;;;;;;7.03;3.38;;;12.50;91.00;;;;;;7385692;19;20227;-76
2023/04/14 09:22:39;;;;;;;11.52;3.58;;;12.40;91.10;;;;;;7408414;19;20006;-73
2023/04/14 09:25:10;;;;;;;9.48;3.45;;;12.40;91.20;;;;;;7386119;19;20007;-75
2023/04/14 09:27:39;;;;;;;11.80;3.65;;;12.20;91.30;;;;;;7386767;19;19999;-72
2023/04/14 09:30:11;;;;;;;10.52;3.58;;;12.30;91.60;;;;;;7387908;19;20003;-74
2023/04/14 09:32:41;;;;;;;14.13;3.83;;;12.40;91.70;;;;;;7391491;19;20023;-73
2023/04/14 09:35:13;;;;;;;11.70;3.72;;;12.40;91.70;;;;;;7390136;19;20007;-72
2023/04/14 09:37:47;;;;;;;6.65;3.78;;;12.50;91.60;;;;;;7410040;19;20358;-72
2023/04/14 09:40:30;;;;;;;14.73;3.85;;;12.60;91.50;;;;;;7386011;19;20250;-72
2023/04/14 09:42:59;;;;;;;11.02;3.78;;;12.60;91.70;;;;;;7389247;19;20006;-72
2023/04/14 09:45:43;;;;;;;9.45;3.80;;;12.60;91.50;;;;;;7386090;19;20002;-72
2023/04/14 09:48:14;;;;;;;10.38;3.28;;;12.60;91.70;;;;;;7385699;19;20385;-73
2023/04/14 09:51:08;;;;;;;11.85;3.05;;;12.70;91.60;;;;;;7381176;19;20034;-73
2023/04/14 09:53:39;;;;;;;13.63;3.38;;;12.70;91.50;;;;;;7384982;19;20006;-72
2023/04/14 09:56:10;;;;;;;8.13;2.97;;;12.70;91.50;;;;;;7383402;19;20035;-71
2023/04/14 09:58:40;;;;;;;10.52;2.72;;;12.80;91.50;;;;;;7407342;19;20014;-73
2023/04/14 10:01:14;;;;;;;11.00;2.45;;;12.80;91.50;;;;;;7388153;19;19998;-73
2023/04/14 10:03:44;;;;;;;15.05;3.45;;;12.80;91.90;;;;;;7384448;19;20117;-73
2023/04/14 10:06:21;;;;;;;10.40;2.85;;;12.90;91.50;;;;;;7384393;19;20019;-73
2023/04/14 10:08:51;;;;;;;17.95;3.10;;;12.90;91.50;;;;;;7384939;19;20010;-73
2023/04/14 10:11:22;;;;;;;9.75;2.92;;;12.80;91.50;;;;;;7385324;19;20010;-73
2023/04/14 10:13:52;;;;;;;11.50;3.58;;;12.80;91.50;;;;;;7404934;19;20011;-72
2023/04/14 10:16:21;;;;;;;13.30;2.97;;;12.80;91.60;;;;;;7384518;19;20067;-72
2023/04/14 10:18:50;;;;;;;11.38;3.00;;;12.80;91.60;;;;;;7384273;19;20488;-72
2023/04/14 10:21:23;;;;;;;13.18;2.53;;;12.70;91.70;;;;;;7383664;19;20267;-72
2023/04/14 10:23:52;;;;;;;15.70;3.47;;;12.60;91.60;;;;;;7384517;19;20002;-72
2023/04/14 10:26:21;;;;;;;17.45;3.53;;;12.70;91.70;;;;;;7382725;19;20074;-72
2023/04/14 10:28:52;;;;;;;15.40;3.05;;;12.60;91.80;;;;;;7406113;19;20078;-72
2023/04/14 10:31:25;;;;;;;18.90;2.83;;;12.60;91.80;;;;;;7384145;19;20020;-72
2023/04/14 10:33:54;;;;;;;16.42;3.10;;;12.70;91.80;;;;;;7382485;19;20272;-76
2023/04/14 10:36:30;;;;;;;21.95;3.03;;;12.80;92.00;;;;;;7383686;19;20027;-73
2023/04/14 10:39:04;;;;;;;15.82;3.15;;;12.70;92.40;;;;;;7383367;19;20030;-75
2023/04/14 10:41:47;;;;;;;11.48;2.90;;;12.70;92.50;;;;;;7384754;19;20058;-72
2023/04/14 10:44:30;;;;;;;25.42;3.22;;;12.80;92.90;;;;;;7386974;19;20003;-72
2023/04/14 10:47:00;;;;;;;13.02;3.15;;;12.70;93.30;;;;;;7385803;19;19998;-72
2023/04/14 10:49:34;;;;;;;12.32;3.20;;;12.80;93.70;;;;;;7404629;19;20002;-73
2023/04/14 10:52:07;;;;;;;18.60;3.13;;;12.90;93.90;;;;;;7386801;19;20009;-72
2023/04/14 10:54:51;;;;;;;23.95;3.30;;;13.00;93.40;;;;;;7382070;19;20295;-73
2023/04/14 10:57:23;;;;;;;13.77;3.55;;;13.00;93.40;;;;;;7384656;19;20235;-74
2023/04/14 10:59:56;;;;;;;17.83;3.15;;;13.00;93.40;;;;;;7383768;19;20003;-76
2023/04/14 11:02:35;;;;;;;22.05;2.92;;;13.00;93.50;;;;;;7383587;19;20013;-74
2023/04/14 11:05:07;;;;;;;18.40;3.80;;;12.90;93.50;;;;;;7384085;19;20010;-75
2023/04/14 11:07:50;;;;;;;16.55;3.25;;;12.90;93.60;;;;;;7402509;19;20473;-73
2023/04/14 11:10:33;;;;;;;13.23;3.00;;;12.90;93.50;;;;;;7382815;19;20062;-74
2023/04/14 11:13:07;;;;;;;16.10;3.30;;;13.00;93.90;;;;;;7382309;19;20027;-72
2023/04/14 11:15:50;;;;;;;19.35;3.08;;;12.90;93.70;;;;;;7381622;19;20294;-73
2023/04/14 11:18:21;;;;;;;15.45;3.35;;;12.80;93.50;;;;;;7382502;19;19999;-73
2023/04/14 11:20:53;;;;;;;11.57;2.55;;;12.90;93.70;;;;;;7383161;19;19999;-73
2023/04/14 11:23:29;;;;;;;16.20;2.55;;;12.90;94.00;;;;;;7382653;19;20034;-73
2023/04/14 11:25:58;;;;;;;19.83;3.42;;;12.80;93.90;;;;;;7385238;19;20026;-73
2023/04/14 11:28:31;;;;;;;21.10;3.00;;;12.90;94.20;;;;;;7404188;19;20074;-74
2023/04/14 11:31:00;;;;;;;17.02;3.17;;;12.90;94.60;;;;;;7381873;19;20014;-73
2023/04/14 11:33:30;;;;;;;14.55;2.78;;;12.90;94.30;;;;;;7382724;19;20058;-74
2023/04/14 11:36:00;;;;;;;22.92;3.08;;;12.90;93.90;;;;;;7381544;19;20365;-74
2023/04/14 11:38:34;;;;;;;19.23;3.00;;;13.00;94.10;;;;;;7381311;19;20393;-74
2023/04/14 11:41:03;;;;;;;16.08;3.38;;;12.90;94.20;;;;;;7381859;19;20019;-74
2023/04/14 11:43:32;;;;;;;11.23;2.72;;;12.80;94.30;;;;;;7407668;19;20011;-74
2023/04/14 11:46:03;;;;;;;12.93;2.30;;;12.70;94.20;;;;;;7385219;19;20031;-73
2023/04/14 11:48:35;;;;;;;12.77;2.90;;;12.50;94.00;;;;;;7385100;19;20230;-74
2023/04/14 11:51:04;;;;;;;16.77;3.13;;;12.30;94.60;;;;;;7387620;19;20036;-74
2023/04/14 11:53:38;;;;;;;14.40;2.92;;;12.40;95.00;;;;;;7389254;19;20006;-72
2023/04/14 11:56:11;;;;;;;8.70;2.50;;;12.20;95.20;;;;;;7388322;19;20012;-73
2023/04/14 11:58:40;;;;;;;16.20;2.70;;;12.40;95.20;;;;;;7404759;19;20006;-73
2023/04/14 12:01:13;;;;;;;16.58;2.95;;;12.40;95.50;;;;;;7385579;19;20066;-74
2023/04/14 12:03:45;;;;;;;11.43;3.28;;;12.40;95.40;;;;;;7383983;19;20027;-72
2023/04/14 12:06:14;;;;;;;13.35;3.45;;;12.40;95.50;;;;;;7384340;19;20031;-74
2023/04/14 12:08:49;;;;;;;20.67;3.38;;;12.30;95.70;;;;;;7384561;19;20028;-75
2023/04/14 12:11:20;;;;;;;12.27;2.90;;;12.40;95.80;;;;;;7384604;19;20007;-74
2023/04/14 12:14:01;;;;;;;10.70;2.30;;;12.50;95.60;;;;;;7407287;19;20011;-77
2023/04/14 12:17:24;;;;;;;12.20;2.85;;;12.50;95.40;;;;;;7385636;19;20021;-74
2023/04/14 12:19:54;;;;;;;10.70;2.80;;;12.50;95.50;;;;;;7280836;19;2004416;-75
2023/04/14 12:26:03;;;;;;;;;;;;;;;;;;;;;
2023/04/14 12:29:32;;;;;;;9.02;3.05;;;12.50;95.50;;;;;;7383677;19;19999;-74
2023/04/14 12:32:15;;;;;;;;;;;;;;;;;;;;;
2023/04/14 12:37:56;;;;;;;8.23;2.72;;;12.60;95.80;;;;;;7366798;19;20039;-74
2023/04/14 12:40:41;;;;;;;;;;;12.70;96.10;;;;;;7402262;19;20028;-75
2023/04/14 12:43:15;;;;;;;9.80;2.50;;;12.70;96.10;;;;;;7382191;19;19914;-74
2023/04/14 12:45:46;;;;;;;12.13;2.35;;;12.70;96.00;;;;;;7381075;19;20007;-74
2023/04/14 12:48:15;;;;;;;11.00;2.83;;;12.70;96.20;;;;;;7380905;19;20002;-73
2023/04/14 12:50:44;;;;;;;26.70;3.35;;;12.60;96.20;;;;;;7381215;19;20010;-75
2023/04/14 12:53:28;;;;;;;11.18;3.00;;;12.50;96.10;;;;;;7381463;19;20067;-73
2023/04/14 12:56:13;;;;;;;14.57;3.13;;;12.40;96.50;;;;;;7382201;19;20003;-73
2023/04/14 12:58:45;;;;;;;13.65;3.03;;;12.40;96.60;;;;;;7405870;19;20018;-74
2023/04/14 13:01:19;;;;;;;8.57;2.88;;;12.40;96.40;;;;;;7386873;19;20002;-75
2023/04/14 13:03:54;;;;;;;13.65;2.58;;;12.40;96.60;;;;;;7387403;19;20246;-77
2023/04/14 13:06:30;;;;;;;6.55;2.20;;;12.40;97.00;;;;;;7385331;19;20007;-75
2023/04/14 13:09:01;;;;;;;11.15;2.70;;;12.40;96.90;;;;;;7382525;19;20030;-75
2023/04/14 13:11:33;;;;;;;9.48;2.50;;;12.50;96.80;;;;;;7382822;19;20023;-73
2023/04/14 13:14:01;;;;;;;;;;;12.50;96.60;;;;;;7384600;19;20006;-76
2023/04/14 13:16:30;;;;;;;10.65;2.15;;;12.60;96.30;;;;;;7401846;19;19924;-74
2023/04/14 13:19:00;;;;;;;9.98;2.70;;;12.60;95.80;;;;;;7382421;19;20070;-74
2023/04/14 13:21:29;;;;;;;8.77;2.38;;;12.50;96.00;;;;;;7382233;19;20014;-74